createdAt,value
2017-08-20T00:01:42.113Z,98.20
2017-08-20T00:04:09.648Z,98.50
2017-08-20T00:06:37.179Z,98.30
2017-08-20T00:09:04.731Z,98.30
2017-08-20T00:11:32.256Z,98.40
2017-08-20T00:13:59.800Z,98.60
2017-08-20T00:16:27.315Z,98.60
2017-08-20T00:18:54.843Z,98.50
2017-08-20T00:21:22.404Z,98.80
2017-08-20T00:23:49.941Z,98.60
2017-08-20T00:26:17.471Z,98.50
2017-08-20T00:28:45.586Z,98.10
2017-08-20T00:31:13.620Z,98.30
2017-08-20T00:33:41.163Z,98.40
2017-08-20T00:36:08.730Z,98.70
2017-08-20T00:38:36.262Z,98.70
2017-08-20T00:41:03.809Z,98.70
2017-08-20T00:43:31.384Z,98.50
2017-08-20T00:45:58.925Z,98.70
2017-08-20T00:48:26.542Z,98.70
2017-08-20T00:50:54.086Z,98.70
2017-08-20T00:53:21.658Z,98.40
2017-08-20T00:55:49.170Z,98.50
2017-08-20T00:58:16.689Z,98.50
2017-08-20T01:00:44.613Z,98.70
2017-08-20T01:03:12.146Z,98.90
2017-08-20T01:05:39.711Z,98.70
2017-08-20T01:08:07.245Z,98.70
2017-08-20T01:10:34.792Z,98.90
2017-08-20T01:13:02.329Z,98.90
2017-08-20T01:15:29.863Z,98.90
2017-08-20T01:17:57.390Z,98.90
2017-08-20T01:20:24.912Z,98.90
2017-08-20T01:22:52.472Z,98.90
2017-08-20T01:25:20.308Z,98.70
2017-08-20T01:27:47.872Z,98.70
2017-08-20T01:30:15.811Z,98.90
2017-08-20T01:32:43.956Z,99.00
2017-08-20T01:35:11.509Z,98.70
2017-08-20T01:37:39.054Z,98.70
2017-08-20T01:40:06.597Z,98.50
2017-08-20T01:42:34.138Z,98.40
2017-08-20T01:45:01.679Z,98.40
2017-08-20T01:47:29.208Z,98.50
2017-08-20T01:49:56.754Z,98.50
2017-08-20T01:52:24.266Z,98.50
2017-08-20T01:54:51.807Z,98.70
2017-08-20T01:57:19.318Z,98.80
2017-08-20T01:59:46.839Z,98.80
2017-08-20T02:02:15.138Z,98.70
2017-08-20T02:04:42.643Z,98.80
2017-08-20T02:07:10.204Z,98.70
2017-08-20T02:09:37.722Z,98.80
2017-08-20T02:12:05.267Z,98.80
2017-08-20T02:14:32.775Z,98.80
2017-08-20T02:17:00.343Z,99.10
2017-08-20T02:19:27.858Z,99.30
2017-08-20T02:21:55.378Z,99.30
2017-08-20T02:24:22.915Z,99.40
2017-08-20T02:26:50.433Z,99.40
2017-08-20T02:29:17.977Z,99.30
2017-08-20T02:31:45.509Z,99.20
2017-08-20T02:34:13.839Z,99.10
2017-08-20T02:36:41.367Z,99.20
2017-08-20T02:39:08.910Z,99.20
2017-08-20T02:41:36.431Z,99.30
2017-08-20T02:44:03.954Z,99.20
2017-08-20T02:46:31.495Z,99.20
2017-08-20T02:48:59.036Z,99.20
2017-08-20T02:51:26.587Z,99.20
2017-08-20T02:53:54.125Z,99.20
2017-08-20T02:56:21.682Z,99.10
2017-08-20T02:58:49.198Z,99.10
2017-08-20T03:01:16.760Z,99.10
2017-08-20T03:03:44.282Z,99.10
2017-08-20T03:06:11.799Z,99.10
2017-08-20T03:08:39.322Z,99.00
2017-08-20T03:11:06.844Z,99.00
2017-08-20T03:13:34.370Z,98.90
2017-08-20T03:16:01.881Z,99.00
2017-08-20T03:18:29.448Z,99.00
2017-08-20T03:20:56.959Z,99.10
2017-08-20T03:23:24.520Z,98.90
2017-08-20T03:25:52.033Z,98.90
2017-08-20T03:28:19.551Z,99.10
2017-08-20T03:30:47.080Z,98.90
2017-08-20T03:33:15.273Z,98.60
2017-08-20T03:35:42.807Z,98.70
2017-08-20T03:38:10.328Z,98.80
2017-08-20T03:40:37.861Z,98.70
2017-08-20T03:43:05.396Z,98.70
2017-08-20T03:45:32.937Z,98.60
2017-08-20T03:48:00.468Z,98.60
2017-08-20T03:50:27.986Z,98.50
2017-08-20T03:52:55.530Z,98.50
2017-08-20T03:55:23.060Z,98.50
2017-08-20T03:57:50.602Z,98.50
2017-08-20T04:00:18.130Z,98.60
2017-08-20T04:02:45.671Z,98.60
2017-08-20T04:05:13.841Z,98.60
2017-08-20T04:07:41.408Z,98.40
2017-08-20T04:10:08.943Z,98.30
2017-08-20T04:12:36.462Z,98.30
2017-08-20T04:15:04.017Z,98.40
2017-08-20T04:17:31.537Z,98.60
2017-08-20T04:19:59.097Z,98.70
2017-08-20T04:22:26.624Z,98.70
2017-08-20T04:24:54.190Z,98.70
2017-08-20T04:27:21.727Z,98.60
2017-08-20T04:29:49.256Z,98.80
2017-08-20T04:32:16.816Z,98.50
2017-08-20T04:34:44.727Z,98.60
2017-08-20T04:37:12.272Z,98.60
2017-08-20T04:39:39.815Z,98.50
2017-08-20T04:42:07.363Z,98.60
2017-08-20T04:44:34.885Z,98.60
2017-08-20T04:47:02.412Z,98.80
2017-08-20T04:49:29.947Z,98.80
2017-08-20T04:51:57.490Z,98.60
2017-08-20T04:54:25.061Z,98.50
2017-08-20T04:56:52.601Z,98.60
2017-08-20T04:59:20.142Z,98.80
2017-08-20T05:01:47.667Z,98.90
2017-08-20T05:04:16.047Z,98.80
2017-08-20T05:06:44.699Z,98.70
2017-08-20T05:09:12.233Z,98.80
2017-08-20T05:11:39.770Z,98.70
2017-08-20T05:14:07.273Z,98.70
2017-08-20T05:16:34.802Z,98.90
2017-08-20T05:19:03.047Z,98.90
2017-08-20T05:21:30.591Z,98.60
2017-08-20T05:23:58.102Z,98.70
2017-08-20T05:26:25.648Z,98.90
2017-08-20T05:28:53.176Z,98.90
2017-08-20T05:31:20.699Z,98.40
2017-08-20T05:33:48.243Z,98.50
2017-08-20T05:36:15.786Z,98.60
2017-08-20T05:38:43.861Z,98.60
2017-08-20T05:41:11.387Z,98.70
2017-08-20T05:43:38.925Z,98.80
2017-08-20T05:46:06.449Z,98.50
2017-08-20T05:48:34.009Z,98.60
2017-08-20T05:51:01.518Z,98.50
2017-08-20T05:53:29.035Z,98.60
2017-08-20T05:55:56.560Z,98.50
2017-08-20T05:58:25.150Z,98.60
2017-08-20T06:00:52.678Z,98.70
2017-08-20T06:03:20.188Z,98.50
2017-08-20T06:05:47.710Z,98.50
2017-08-20T06:08:15.770Z,98.70
2017-08-20T06:10:43.794Z,98.50
2017-08-20T06:13:11.319Z,98.60
2017-08-20T06:15:38.837Z,98.90
2017-08-20T06:18:06.362Z,98.70
2017-08-20T06:20:33.879Z,98.90
2017-08-20T06:23:01.413Z,98.70
2017-08-20T06:25:28.953Z,98.50
2017-08-20T06:27:56.488Z,98.60
2017-08-20T06:30:23.999Z,97.90
2017-08-20T06:32:51.545Z,98.00
2017-08-20T06:35:19.088Z,97.90
2017-08-20T06:37:46.612Z,97.60
2017-08-20T06:40:14.684Z,97.90
2017-08-20T06:42:42.224Z,98.30
2017-08-20T06:45:09.789Z,98.20
2017-08-20T06:47:37.329Z,98.10
2017-08-20T06:50:05.937Z,98.20
2017-08-20T06:52:33.472Z,98.00
2017-08-20T06:55:01.023Z,98.10
2017-08-20T06:57:28.541Z,98.20
2017-08-20T06:59:56.064Z,98.10
2017-08-20T07:02:23.605Z,98.30
2017-08-20T07:04:51.145Z,98.20
2017-08-20T07:07:18.739Z,97.80
2017-08-20T07:09:46.265Z,97.60
2017-08-20T07:12:13.839Z,98.00
2017-08-20T07:14:41.362Z,98.30
2017-08-20T07:17:08.928Z,98.30
2017-08-20T07:19:36.469Z,97.80
2017-08-20T07:22:04.013Z,97.20
2017-08-20T07:24:31.566Z,97.10
2017-08-20T07:26:59.112Z,96.00
2017-08-20T07:29:26.663Z,96.70
2017-08-20T07:31:54.200Z,97.40
2017-08-20T07:34:21.780Z,97.80
2017-08-20T07:36:49.327Z,97.60
2017-08-20T07:39:16.863Z,97.10
2017-08-20T07:41:44.409Z,97.40
2017-08-20T07:44:11.938Z,97.50
2017-08-20T07:46:39.488Z,97.70
2017-08-20T07:49:07.037Z,97.00
2017-08-20T07:51:34.579Z,97.60
2017-08-20T07:54:02.119Z,97.90
2017-08-20T07:56:29.791Z,98.20
2017-08-20T07:58:57.338Z,97.50
2017-08-20T08:01:24.874Z,97.80
2017-08-20T08:03:52.424Z,97.80
2017-08-20T08:06:19.951Z,98.10
2017-08-20T08:08:47.520Z,98.10
2017-08-20T08:11:16.231Z,98.20
2017-08-20T08:13:44.351Z,97.50
2017-08-20T08:16:11.887Z,97.70
2017-08-20T08:18:39.449Z,97.70
2017-08-20T08:21:06.979Z,97.80
2017-08-20T08:23:34.506Z,98.00
2017-08-20T08:26:02.049Z,97.80
2017-08-20T08:28:29.589Z,97.10
2017-08-20T08:30:57.140Z,97.40
2017-08-20T08:33:24.654Z,97.30
2017-08-20T08:35:52.201Z,97.10
2017-08-20T08:38:19.727Z,96.90
2017-08-20T08:40:47.274Z,97.60
2017-08-20T08:43:15.999Z,98.00
2017-08-20T08:45:43.591Z,95.80
2017-08-20T08:48:11.137Z,95.40
2017-08-20T08:50:38.650Z,95.50
2017-08-20T08:53:06.209Z,95.40
2017-08-20T08:55:33.749Z,94.70
2017-08-20T08:58:01.489Z,95.90
2017-08-20T09:00:29.033Z,97.30
2017-08-20T09:02:56.572Z,97.70
2017-08-20T09:05:24.104Z,94.80
2017-08-20T09:07:51.690Z,92.70
2017-08-20T09:10:19.217Z,92.20
2017-08-20T09:12:46.752Z,92.60
2017-08-20T09:15:14.789Z,93.20
2017-08-20T09:17:42.319Z,92.20
2017-08-20T09:20:09.868Z,93.00
2017-08-20T09:22:37.471Z,93.70
2017-08-20T09:25:05.017Z,92.10
2017-08-20T09:27:32.535Z,93.90
2017-08-20T09:30:00.087Z,92.20
2017-08-20T09:32:27.623Z,92.60
2017-08-20T09:34:55.173Z,92.70
2017-08-20T09:37:22.710Z,93.80
2017-08-20T09:39:50.237Z,95.00
2017-08-20T09:42:17.768Z,94.10
2017-08-20T09:44:46.450Z,93.00
2017-08-20T09:47:15.323Z,91.60
2017-08-20T09:49:42.848Z,90.40
2017-08-20T09:52:10.384Z,92.00
2017-08-20T09:54:37.899Z,91.40
2017-08-20T09:57:05.709Z,90.00
2017-08-20T09:59:33.251Z,91.30
2017-08-20T10:02:00.772Z,91.00
2017-08-20T10:04:28.316Z,91.00
2017-08-20T10:06:55.832Z,89.50
2017-08-20T10:09:23.398Z,88.70
2017-08-20T10:11:50.911Z,89.80
2017-08-20T10:14:18.454Z,90.40
2017-08-20T10:16:45.976Z,89.40
2017-08-20T10:19:13.932Z,90.40
2017-08-20T10:21:41.443Z,89.20
2017-08-20T10:24:09.035Z,89.70
2017-08-20T10:26:36.583Z,90.20
2017-08-20T10:29:04.115Z,87.90
2017-08-20T10:31:31.689Z,88.10
2017-08-20T10:33:59.198Z,88.50
2017-08-20T10:36:26.728Z,88.80
2017-08-20T10:38:54.248Z,90.20
2017-08-20T10:41:21.796Z,90.30
2017-08-20T10:43:49.321Z,91.30
2017-08-20T10:46:16.869Z,90.80
2017-08-20T10:48:44.405Z,92.30
2017-08-20T10:51:11.920Z,91.70
2017-08-20T10:53:39.468Z,91.50
2017-08-20T10:56:06.978Z,91.70
2017-08-20T10:58:34.495Z,91.70
2017-08-20T11:01:02.002Z,90.20
2017-08-20T11:03:29.547Z,89.80
2017-08-20T11:05:57.193Z,89.60
2017-08-20T11:08:24.740Z,88.70
2017-08-20T11:10:52.238Z,89.60
2017-08-20T11:13:19.775Z,86.10
2017-08-20T11:15:47.422Z,85.70
2017-08-20T11:18:16.069Z,86.10
2017-08-20T11:20:43.997Z,84.50
2017-08-20T11:23:11.505Z,82.40
2017-08-20T11:25:39.108Z,83.90
2017-08-20T11:28:06.617Z,85.30
2017-08-20T11:30:34.183Z,84.10
2017-08-20T11:33:01.691Z,84.10
2017-08-20T11:35:29.333Z,79.50
2017-08-20T11:37:56.845Z,81.80
2017-08-20T11:40:24.384Z,80.50
2017-08-20T11:42:51.930Z,81.10
2017-08-20T11:45:19.482Z,82.10
2017-08-20T11:47:47.027Z,79.70
2017-08-20T11:50:14.906Z,79.70
2017-08-20T11:52:42.420Z,79.50
2017-08-20T11:55:10.071Z,78.90
2017-08-20T11:57:37.585Z,79.10
2017-08-20T12:00:05.099Z,79.60
2017-08-20T12:02:32.622Z,78.20
2017-08-20T12:05:00.618Z,78.80
2017-08-20T12:07:28.163Z,78.20
2017-08-20T12:09:55.683Z,79.80
2017-08-20T12:12:23.185Z,80.50
2017-08-20T12:14:50.707Z,79.00
2017-08-20T12:17:18.217Z,78.50
2017-08-20T12:19:45.733Z,77.90
2017-08-20T12:22:13.267Z,78.70
2017-08-20T12:24:41.724Z,77.10
2017-08-20T12:27:09.217Z,78.50
2017-08-20T12:29:36.937Z,77.50
2017-08-20T12:32:04.462Z,76.10
2017-08-20T12:34:32.127Z,77.50
2017-08-20T12:36:59.638Z,76.40
2017-08-20T12:39:27.327Z,77.20
2017-08-20T12:41:54.884Z,76.00
2017-08-20T12:44:22.468Z,76.60
2017-08-20T12:46:50.003Z,76.90
2017-08-20T12:49:17.590Z,73.80
2017-08-20T12:51:45.729Z,74.80
2017-08-20T12:54:14.467Z,75.30
2017-08-20T12:56:44.176Z,75.80
2017-08-20T12:59:11.696Z,76.50
2017-08-20T13:01:39.380Z,76.20
2017-08-20T13:04:06.901Z,76.20
2017-08-20T13:06:34.440Z,76.90
2017-08-20T13:09:01.974Z,76.40
2017-08-20T13:11:29.492Z,75.60
2017-08-20T13:13:57.029Z,73.90
2017-08-20T13:16:24.581Z,74.90
2017-08-20T13:19:00.641Z,74.70
2017-08-20T13:21:28.380Z,71.90
2017-08-20T13:23:56.153Z,74.70
2017-08-20T13:26:23.815Z,72.10
2017-08-20T13:28:51.417Z,72.30
2017-08-20T13:31:19.071Z,71.00
2017-08-20T13:33:46.929Z,69.10
2017-08-20T13:36:15.452Z,69.70
2017-08-20T13:38:42.973Z,67.70
2017-08-20T13:41:11.072Z,68.50
2017-08-20T13:43:38.693Z,69.00
2017-08-20T13:46:06.546Z,71.70
2017-08-20T13:48:34.153Z,70.60
2017-08-20T13:51:02.269Z,70.90
2017-08-20T13:53:29.962Z,71.20
2017-08-20T13:55:57.623Z,70.80
2017-08-20T13:58:25.224Z,71.20
2017-08-20T14:00:52.870Z,70.40
2017-08-20T14:03:20.428Z,71.30
2017-08-20T14:05:47.941Z,72.40
2017-08-20T14:08:17.239Z,71.70
2017-08-20T14:10:46.887Z,71.70
2017-08-20T14:13:15.394Z,68.70
2017-08-20T14:15:42.925Z,68.70
2017-08-20T14:18:10.483Z,67.50
2017-08-20T14:20:37.999Z,67.10
2017-08-20T14:23:05.612Z,66.40
2017-08-20T14:25:33.105Z,67.60
2017-08-20T14:28:00.615Z,67.20
2017-08-20T14:30:28.155Z,68.20
2017-08-20T14:32:55.673Z,67.80
2017-08-20T14:35:23.207Z,69.10
2017-08-20T14:37:50.752Z,69.80
2017-08-20T14:40:18.818Z,69.20
2017-08-20T14:42:46.331Z,69.40
2017-08-20T14:45:14.978Z,70.00
2017-08-20T14:47:42.576Z,69.40
2017-08-20T14:50:10.214Z,70.40
2017-08-20T14:52:38.249Z,70.00
2017-08-20T14:55:05.845Z,69.80
2017-08-20T14:57:33.434Z,70.30
2017-08-20T15:00:00.954Z,70.70
2017-08-20T15:02:28.562Z,70.80
2017-08-20T15:04:56.068Z,71.10
2017-08-20T15:07:23.672Z,72.30
2017-08-20T15:09:51.272Z,70.70
2017-08-20T15:12:18.792Z,70.60
2017-08-20T15:14:46.325Z,71.80
2017-08-20T15:17:14.549Z,71.40
2017-08-20T15:19:42.059Z,70.90
2017-08-20T15:22:09.658Z,71.70
2017-08-20T15:24:37.242Z,70.40
2017-08-20T15:27:04.796Z,69.70
2017-08-20T15:29:32.536Z,70.10
2017-08-20T15:32:00.074Z,69.20
2017-08-20T15:34:27.834Z,69.10
2017-08-20T15:36:55.365Z,69.40
2017-08-20T15:39:22.929Z,66.70
2017-08-20T15:41:50.478Z,68.30
2017-08-20T15:44:18.014Z,66.80
2017-08-20T15:46:46.291Z,67.90
2017-08-20T15:49:14.534Z,66.90
2017-08-20T15:51:42.040Z,67.90
2017-08-20T15:54:09.594Z,69.00
2017-08-20T15:56:37.116Z,67.50
2017-08-20T15:59:04.675Z,67.30
2017-08-20T16:01:32.186Z,67.20
2017-08-20T16:03:59.693Z,68.60
2017-08-20T16:06:27.554Z,64.50
2017-08-20T16:08:55.065Z,65.40
2017-08-20T16:11:23.010Z,65.30
2017-08-20T16:13:50.535Z,65.80
2017-08-20T16:16:18.296Z,67.50
2017-08-20T16:18:46.121Z,66.90
2017-08-20T16:21:14.139Z,66.10
2017-08-20T16:23:41.690Z,66.30
2017-08-20T16:26:09.904Z,65.70
2017-08-20T16:28:37.440Z,67.00
2017-08-20T16:31:05.010Z,68.20
2017-08-20T16:33:32.538Z,67.40
2017-08-20T16:36:01.018Z,66.80
2017-08-20T16:38:28.623Z,68.20
2017-08-20T16:40:57.511Z,68.40
2017-08-20T16:43:25.242Z,67.70
2017-08-20T16:45:52.791Z,67.80
2017-08-20T16:48:20.389Z,69.90
2017-08-20T16:50:47.912Z,69.50
2017-08-20T16:53:16.304Z,69.50
2017-08-20T16:55:43.858Z,70.30
2017-08-20T16:58:11.419Z,70.40
2017-08-20T17:00:39.013Z,70.20
2017-08-20T17:03:06.531Z,70.90
2017-08-20T17:05:34.060Z,72.20
2017-08-20T17:08:01.649Z,70.00
2017-08-20T17:10:29.210Z,70.20
2017-08-20T17:12:56.753Z,71.20
2017-08-20T17:15:24.289Z,71.20
2017-08-20T17:17:51.834Z,72.30
2017-08-20T17:20:19.371Z,72.40
2017-08-20T17:22:46.909Z,71.70
2017-08-20T17:25:15.106Z,72.80
2017-08-20T17:27:42.609Z,72.60
2017-08-20T17:30:10.141Z,72.30
2017-08-20T17:32:37.812Z,72.00
2017-08-20T17:35:05.485Z,73.60
2017-08-20T17:37:32.990Z,71.50
2017-08-20T17:40:00.505Z,71.60
2017-08-20T17:42:28.029Z,71.30
2017-08-20T17:44:55.677Z,71.60
2017-08-20T17:47:23.199Z,70.90
2017-08-20T17:49:50.729Z,71.90
2017-08-20T17:52:18.284Z,72.40
2017-08-20T17:54:45.803Z,72.40
2017-08-20T17:57:13.321Z,73.10
2017-08-20T17:59:40.829Z,73.60
2017-08-20T18:02:08.367Z,74.30
2017-08-20T18:04:35.909Z,73.40
2017-08-20T18:07:03.421Z,73.90
2017-08-20T18:09:30.960Z,74.10
2017-08-20T18:11:58.476Z,74.20
2017-08-20T18:14:26.001Z,74.50
2017-08-20T18:16:53.534Z,74.30
2017-08-20T18:19:21.152Z,73.90
2017-08-20T18:21:48.669Z,74.70
2017-08-20T18:24:16.177Z,75.30
2017-08-20T18:26:44.211Z,76.40
2017-08-20T18:29:11.943Z,77.20
2017-08-20T18:31:39.493Z,77.70
2017-08-20T18:34:07.065Z,78.20
2017-08-20T18:36:34.716Z,78.40
2017-08-20T18:39:02.222Z,77.90
2017-08-20T18:41:29.788Z,78.70
2017-08-20T18:43:57.352Z,79.30
2017-08-20T18:46:25.045Z,78.00
2017-08-20T18:48:52.584Z,77.70
2017-08-20T18:51:20.264Z,78.10
2017-08-20T18:53:47.891Z,77.10
2017-08-20T18:56:16.713Z,76.90
2017-08-20T18:58:45.631Z,77.10
2017-08-20T19:01:13.159Z,77.90
2017-08-20T19:03:40.784Z,78.20
2017-08-20T19:06:08.296Z,77.70
2017-08-20T19:08:35.980Z,78.00
2017-08-20T19:11:03.512Z,77.70
2017-08-20T19:13:31.056Z,78.50
2017-08-20T19:15:58.582Z,78.40
2017-08-20T19:18:26.171Z,78.60
2017-08-20T19:20:53.707Z,79.10
2017-08-20T19:23:21.217Z,80.00
2017-08-20T19:25:48.771Z,80.90
2017-08-20T19:28:16.287Z,81.30
2017-08-20T19:30:44.239Z,81.90
2017-08-20T19:33:11.788Z,81.90
2017-08-20T19:35:39.297Z,81.10
2017-08-20T19:38:06.832Z,81.40
2017-08-20T19:40:34.330Z,81.70
2017-08-20T19:43:01.853Z,82.70
2017-08-20T19:45:29.716Z,82.90
2017-08-20T19:47:57.300Z,83.60
2017-08-20T19:50:24.843Z,83.80
2017-08-20T19:52:52.355Z,83.60
2017-08-20T19:55:20.061Z,83.70
2017-08-20T19:57:47.604Z,84.40
2017-08-20T20:00:16.060Z,84.40
2017-08-20T20:02:44.224Z,84.00
2017-08-20T20:05:11.751Z,83.70
2017-08-20T20:07:39.357Z,83.30
2017-08-20T20:10:07.068Z,83.40
2017-08-20T20:12:34.796Z,83.90
2017-08-20T20:15:02.386Z,83.70
2017-08-20T20:17:30.170Z,84.10
2017-08-20T20:19:58.694Z,84.60
2017-08-20T20:22:26.227Z,85.10
2017-08-20T20:24:54.846Z,85.30
2017-08-20T20:27:22.399Z,85.70
2017-08-20T20:29:50.008Z,85.50
2017-08-20T20:32:17.665Z,86.20
2017-08-20T20:34:46.465Z,86.00
2017-08-20T20:37:14.613Z,85.90
2017-08-20T20:39:42.226Z,86.10
2017-08-20T20:42:09.767Z,86.10
2017-08-20T20:44:37.453Z,85.40
2017-08-20T20:47:04.971Z,85.20
2017-08-20T20:49:32.498Z,85.20
2017-08-20T20:52:00.011Z,85.90
2017-08-20T20:54:27.545Z,86.20
2017-08-20T20:56:55.062Z,86.10
2017-08-20T20:59:22.643Z,86.30
2017-08-20T21:01:50.170Z,86.40
2017-08-20T21:04:17.955Z,86.60
2017-08-20T21:06:46.391Z,86.90
2017-08-20T21:09:14.303Z,87.60
2017-08-20T21:11:41.860Z,88.10
2017-08-20T21:14:09.378Z,88.10
2017-08-20T21:16:36.932Z,88.00
2017-08-20T21:19:04.461Z,88.20
2017-08-20T21:21:32.158Z,88.00
2017-08-20T21:23:59.703Z,88.40
2017-08-20T21:26:27.236Z,87.90
2017-08-20T21:28:54.771Z,87.70
2017-08-20T21:31:22.344Z,87.60
2017-08-20T21:33:49.880Z,87.60
2017-08-20T21:36:17.398Z,87.80
2017-08-20T21:38:45.002Z,88.30
2017-08-20T21:41:12.606Z,88.80
2017-08-20T21:43:40.119Z,88.70
2017-08-20T21:46:07.648Z,88.50
2017-08-20T21:48:35.181Z,88.50
2017-08-20T21:51:02.711Z,88.40
2017-08-20T21:53:30.245Z,88.50
2017-08-20T21:55:57.969Z,88.70
2017-08-20T21:58:25.523Z,89.20
2017-08-20T22:00:53.075Z,89.20
2017-08-20T22:03:20.597Z,88.90
2017-08-20T22:05:48.105Z,88.70
2017-08-20T22:08:16.850Z,88.80
2017-08-20T22:10:44.358Z,88.80
2017-08-20T22:13:11.896Z,89.10
2017-08-20T22:15:39.425Z,89.60
2017-08-20T22:18:06.961Z,89.60
2017-08-20T22:20:34.498Z,89.30
2017-08-20T22:23:02.051Z,89.40
2017-08-20T22:25:29.613Z,89.60
2017-08-20T22:27:57.135Z,89.70
2017-08-20T22:30:24.667Z,89.80
2017-08-20T22:32:52.204Z,89.90
2017-08-20T22:35:19.747Z,90.20
2017-08-20T22:37:47.275Z,90.20
2017-08-20T22:40:14.823Z,90.70
2017-08-20T22:42:42.355Z,90.20
2017-08-20T22:45:09.914Z,89.90
2017-08-20T22:47:37.429Z,89.90
2017-08-20T22:50:05.396Z,90.00
2017-08-20T22:52:32.941Z,90.10
2017-08-20T22:55:00.469Z,90.40
2017-08-20T22:57:28.017Z,90.40
2017-08-20T22:59:55.786Z,90.10
2017-08-20T23:02:23.325Z,90.30
2017-08-20T23:04:50.858Z,90.10
2017-08-20T23:07:18.408Z,90.30
2017-08-20T23:09:45.923Z,89.90
2017-08-20T23:12:13.459Z,89.90
2017-08-20T23:14:41.002Z,90.10
2017-08-20T23:17:08.537Z,89.90
2017-08-20T23:19:36.059Z,89.80
2017-08-20T23:22:03.573Z,89.90
2017-08-20T23:24:31.125Z,89.50
2017-08-20T23:26:58.650Z,89.60
2017-08-20T23:29:26.210Z,89.80
2017-08-20T23:31:53.719Z,90.10
2017-08-20T23:34:21.243Z,90.30
2017-08-20T23:36:48.774Z,90.30
2017-08-20T23:39:16.284Z,90.50
2017-08-20T23:41:44.406Z,90.70
2017-08-20T23:44:11.933Z,90.70
2017-08-20T23:46:39.469Z,90.90
2017-08-20T23:49:06.987Z,90.70
2017-08-20T23:51:34.500Z,91.00
2017-08-20T23:54:02.035Z,90.90
2017-08-20T23:56:29.546Z,90.70
2017-08-20T23:58:57.078Z,90.70
